Huvudsida
METAR-TAF:

METAR-TAF

Flygplatser :

Grand Turk, Turks- och Caicosöarna

latitud: 21-26-40N, longitud: 071-08-32W, höjd: 4 m

METAR: saknas

Tid: 11:22 (15:22 UTC)

Väderprognos

Denna rapport gjordes för 4 timmar och 52 minuter sedan, klockan 10:30 UTC
Prognos gäller från 21 kl. 12 UTC till 22 kl. 12 UTC
Vind 12 kt från ost
Sikt 10 km eller mer
Få moln på en höjd av 1800 ft
Brutna moln på en höjd av 25000 ft
skurar i närheten
Sannolikhet 30% :
Temporärt
från 21 kl. 14 UTC till 21 kl. 21 UTC
Vind 10 kt från ost i byarna ända upp till 20 kt
Sikt: 8000 m
Få moln på en höjd av 1500 ft, Cumulonimbus.
Brutna moln på en höjd av 3000 ft
regnskurar

TAF: MBGT 211030Z 2112/2212 10012KT 9999 VCSH FEW018 BKN250 PROB30 TEMPO 2114/2121 10010G20KT 8000 SHRA FEW015CB BKN030

Aktuella väderrapporter och prognoser från 4000 flygplatser (METAR- och TAF-rapporter).

De tillgängliga stationerna syns som gula och röda prickar på kartan.

För musen över prickarna för att se namnen på stationerna.

Klicka sedan för att få väderrapporter och prognoser.

För att ändra kartan: Klicka på de gröna knapparna med ett svart kors på för att zooma in; den gröna knappen med ett streck på för att zooma ut; eller på de gröna pilarna för angränsande kartor.


METAR-TAF: